sensor_id;sensor_type;location;lat;lon;timestamp;pressure;altitude;pressure_sealevel;temperature;humidity
54369;BME280;40266;52.434;17.056;2022-12-05T00:02:28;101163.14;;;0.92;100.00
54369;BME280;40266;52.434;17.056;2022-12-05T00:05:11;101158.83;;;0.92;100.00
54369;BME280;40266;52.434;17.056;2022-12-05T00:07:54;101161.54;;;0.90;100.00
54369;BME280;40266;52.434;17.056;2022-12-05T00:10:38;101161.88;;;0.90;100.00
54369;BME280;40266;52.434;17.056;2022-12-05T00:13:21;101157.21;;;0.89;100.00
54369;BME280;40266;52.434;17.056;2022-12-05T00:16:05;101152.03;;;0.88;100.00
54369;BME280;40266;52.434;17.056;2022-12-05T00:18:48;101147.40;;;0.89;100.00
54369;BME280;40266;52.434;17.056;2022-12-05T00:21:34;101147.91;;;0.89;100.00
54369;BME280;40266;52.434;17.056;2022-12-05T00:24:18;101146.59;;;0.91;100.00
54369;BME280;40266;52.434;17.056;2022-12-05T00:27:01;101149.69;;;0.91;100.00
54369;BME280;40266;52.434;17.056;2022-12-05T00:29:44;101148.67;;;0.91;100.00
54369;BME280;40266;52.434;17.056;2022-12-05T00:32:28;101153.67;;;0.92;100.00
54369;BME280;40266;52.434;17.056;2022-12-05T00:35:11;101160.55;;;0.92;100.00
54369;BME280;40266;52.434;17.056;2022-12-05T00:37:54;101154.71;;;0.92;100.00
54369;BME280;40266;52.434;17.056;2022-12-05T00:40:37;101154.53;;;0.92;100.00
54369;BME280;40266;52.434;17.056;2022-12-05T00:43:20;101152.13;;;0.92;100.00
54369;BME280;40266;52.434;17.056;2022-12-05T00:46:03;101150.41;;;0.92;100.00
54369;BME280;40266;52.434;17.056;2022-12-05T00:48:46;101153.31;;;0.91;100.00
54369;BME280;40266;52.434;17.056;2022-12-05T00:51:32;101151.75;;;0.91;100.00
54369;BME280;40266;52.434;17.056;2022-12-05T00:54:16;101142.95;;;0.90;100.00
54369;BME280;40266;52.434;17.056;2022-12-05T00:56:59;101140.39;;;0.90;100.00
54369;BME280;40266;52.434;17.056;2022-12-05T00:59:42;101138.33;;;0.91;100.00
54369;BME280;40266;52.434;17.056;2022-12-05T01:02:25;101141.42;;;0.90;100.00
54369;BME280;40266;52.434;17.056;2022-12-05T01:05:07;101150.36;;;0.91;100.00
54369;BME280;40266;52.434;17.056;2022-12-05T01:07:50;101152.77;;;0.90;100.00
54369;BME280;40266;52.434;17.056;2022-12-05T01:10:33;101160.85;;;0.90;100.00
54369;BME280;40266;52.434;17.056;2022-12-05T01:13:16;101166.89;;;0.91;100.00
54369;BME280;40266;52.434;17.056;2022-12-05T01:16:00;101167.40;;;0.91;100.00
54369;BME280;40266;52.434;17.056;2022-12-05T01:18:43;101162.38;;;0.90;100.00
54369;BME280;40266;52.434;17.056;2022-12-05T01:21:26;101161.30;;;0.88;100.00
54369;BME280;40266;52.434;17.056;2022-12-05T01:24:09;101157.35;;;0.88;100.00
54369;BME280;40266;52.434;17.056;2022-12-05T01:26:53;101159.36;;;0.87;100.00
54369;BME280;40266;52.434;17.056;2022-12-05T01:29:36;101158.66;;;0.86;100.00
54369;BME280;40266;52.434;17.056;2022-12-05T01:32:19;101153.84;;;0.86;100.00
54369;BME280;40266;52.434;17.056;2022-12-05T01:35:02;101149.04;;;0.87;100.00
54369;BME280;40266;52.434;17.056;2022-12-05T01:37:45;101146.33;;;0.88;100.00
54369;BME280;40266;52.434;17.056;2022-12-05T01:40:28;101143.06;;;0.88;100.00
54369;BME280;40266;52.434;17.056;2022-12-05T01:43:14;101148.06;;;0.88;100.00
54369;BME280;40266;52.434;17.056;2022-12-05T01:45:58;101148.38;;;0.87;100.00
54369;BME280;40266;52.434;17.056;2022-12-05T01:48:42;101151.83;;;0.88;100.00
54369;BME280;40266;52.434;17.056;2022-12-05T01:51:25;101144.09;;;0.87;100.00
54369;BME280;40266;52.434;17.056;2022-12-05T01:54:09;101150.65;;;0.89;100.00
54369;BME280;40266;52.434;17.056;2022-12-05T01:57:00;101141.40;;;0.89;100.00
54369;BME280;40266;52.434;17.056;2022-12-05T01:59:51;101136.43;;;0.90;100.00
54369;BME280;40266;52.434;17.056;2022-12-05T02:02:43;101137.02;;;0.93;100.00
54369;BME280;40266;52.434;17.056;2022-12-05T02:05:30;101144.39;;;0.92;100.00
54369;BME280;40266;52.434;17.056;2022-12-05T02:08:14;101147.95;;;0.90;100.00
54369;BME280;40266;52.434;17.056;2022-12-05T02:10:57;101154.48;;;0.90;100.00
54369;BME280;40266;52.434;17.056;2022-12-05T02:26:10;101144.34;;;0.90;100.00
54369;BME280;40266;52.434;17.056;2022-12-05T02:43:53;101134.67;;;0.83;100.00
54369;BME280;40266;52.434;17.056;2022-12-05T02:46:39;101135.54;;;0.84;100.00
54369;BME280;40266;52.434;17.056;2022-12-05T02:49:27;101134.85;;;0.83;100.00
54369;BME280;40266;52.434;17.056;2022-12-05T02:52:13;101129.51;;;0.82;100.00
54369;BME280;40266;52.434;17.056;2022-12-05T02:54:59;101128.95;;;0.82;100.00
54369;BME280;40266;52.434;17.056;2022-12-05T02:57:49;101127.23;;;0.81;100.00
54369;BME280;40266;52.434;17.056;2022-12-05T03:00:34;101128.27;;;0.81;100.00
54369;BME280;40266;52.434;17.056;2022-12-05T03:03:20;101125.84;;;0.81;100.00
54369;BME280;40266;52.434;17.056;2022-12-05T03:08:57;101120.38;;;0.77;100.00
54369;BME280;40266;52.434;17.056;2022-12-05T03:11:46;101120.38;;;0.77;100.00
54369;BME280;40266;52.434;17.056;2022-12-05T03:14:35;101123.30;;;0.76;100.00
54369;BME280;40266;52.434;17.056;2022-12-05T03:17:34;101125.84;;;0.75;100.00
54369;BME280;40266;52.434;17.056;2022-12-05T03:20:28;101130.10;;;0.74;100.00
54369;BME280;40266;52.434;17.056;2022-12-05T03:35:15;101150.44;;;0.70;100.00
54369;BME280;40266;52.434;17.056;2022-12-05T03:38:06;101148.39;;;0.70;100.00
54369;BME280;40266;52.434;17.056;2022-12-05T03:41:06;101153.55;;;0.71;100.00
54369;BME280;40266;52.434;17.056;2022-12-05T03:44:18;101146.99;;;0.70;100.00
54369;BME280;40266;52.434;17.056;2022-12-05T03:47:12;101142.48;;;0.68;100.00
54369;BME280;40266;52.434;17.056;2022-12-05T03:50:04;101136.15;;;0.69;100.00
54369;BME280;40266;52.434;17.056;2022-12-05T03:53:11;101134.44;;;0.70;100.00
54369;BME280;40266;52.434;17.056;2022-12-05T03:56:09;101137.36;;;0.69;100.00
54369;BME280;40266;52.434;17.056;2022-12-05T03:59:01;101135.46;;;0.69;100.00
54369;BME280;40266;52.434;17.056;2022-12-05T04:01:47;101133.91;;;0.69;100.00
54369;BME280;40266;52.434;17.056;2022-12-05T04:04:52;101127.39;;;0.70;100.00
54369;BME280;40266;52.434;17.056;2022-12-05T04:07:38;101121.97;;;0.72;100.00
54369;BME280;40266;52.434;17.056;2022-12-05T04:10:26;101119.42;;;0.73;100.00
54369;BME280;40266;52.434;17.056;2022-12-05T04:13:10;101124.42;;;0.74;100.00
54369;BME280;40266;52.434;17.056;2022-12-05T04:16:23;101121.68;;;0.74;100.00
54369;BME280;40266;52.434;17.056;2022-12-05T04:22:45;101122.54;;;0.73;100.00
54369;BME280;40266;52.434;17.056;2022-12-05T04:26:06;101122.36;;;0.73;100.00
54369;BME280;40266;52.434;17.056;2022-12-05T04:31:38;101121.79;;;0.72;100.00
54369;BME280;40266;52.434;17.056;2022-12-05T04:34:23;101114.57;;;0.72;100.00
54369;BME280;40266;52.434;17.056;2022-12-05T04:37:12;101106.54;;;0.73;100.00
54369;BME280;40266;52.434;17.056;2022-12-05T04:40:03;101101.73;;;0.74;100.00
54369;BME280;40266;52.434;17.056;2022-12-05T04:42:50;101096.77;;;0.75;100.00
54369;BME280;40266;52.434;17.056;2022-12-05T04:45:37;101099.73;;;0.75;100.00
54369;BME280;40266;52.434;17.056;2022-12-05T04:48:25;101100.05;;;0.75;100.00
54369;BME280;40266;52.434;17.056;2022-12-05T04:51:19;101093.23;;;0.77;100.00
54369;BME280;40266;52.434;17.056;2022-12-05T04:54:09;101094.30;;;0.78;100.00
54369;BME280;40266;52.434;17.056;2022-12-05T04:56:59;101093.61;;;0.78;100.00
54369;BME280;40266;52.434;17.056;2022-12-05T04:59:45;101097.16;;;0.76;100.00
54369;BME280;40266;52.434;17.056;2022-12-05T05:02:34;101103.54;;;0.76;100.00
54369;BME280;40266;52.434;17.056;2022-12-05T05:05:21;101105.20;;;0.75;100.00
54369;BME280;40266;52.434;17.056;2022-12-05T05:08:15;101098.52;;;0.76;100.00
54369;BME280;40266;52.434;17.056;2022-12-05T05:13:49;101103.23;;;0.78;100.00
54369;BME280;40266;52.434;17.056;2022-12-05T05:16:37;101107.84;;;0.77;100.00
54369;BME280;40266;52.434;17.056;2022-12-05T05:19:21;101109.70;;;0.75;100.00
54369;BME280;40266;52.434;17.056;2022-12-05T05:22:03;101109.34;;;0.75;100.00
54369;BME280;40266;52.434;17.056;2022-12-05T05:24:46;101110.92;;;0.77;100.00
54369;BME280;40266;52.434;17.056;2022-12-05T05:27:29;101110.58;;;0.77;100.00
54369;BME280;40266;52.434;17.056;2022-12-05T05:30:12;101107.15;;;0.77;100.00
54369;BME280;40266;52.434;17.056;2022-12-05T05:32:58;101100.82;;;0.78;100.00
54369;BME280;40266;52.434;17.056;2022-12-05T05:35:41;101105.65;;;0.78;100.00
54369;BME280;40266;52.434;17.056;2022-12-05T05:38:24;101105.27;;;0.77;100.00
54369;BME280;40266;52.434;17.056;2022-12-05T05:43:56;101100.02;;;0.74;100.00
54369;BME280;40266;52.434;17.056;2022-12-05T05:46:39;101098.27;;;0.73;100.00
54369;BME280;40266;52.434;17.056;2022-12-05T05:49:22;101091.20;;;0.73;100.00
54369;BME280;40266;52.434;17.056;2022-12-05T05:52:05;101093.27;;;0.72;100.00
54369;BME280;40266;52.434;17.056;2022-12-05T05:54:48;101092.38;;;0.71;100.00
54369;BME280;40266;52.434;17.056;2022-12-05T05:57:31;101090.45;;;0.70;100.00
54369;BME280;40266;52.434;17.056;2022-12-05T06:00:16;101088.55;;;0.70;100.00
54369;BME280;40266;52.434;17.056;2022-12-05T06:02:59;101085.73;;;0.68;100.00
54369;BME280;40266;52.434;17.056;2022-12-05T06:05:42;101078.80;;;0.66;100.00
54369;BME280;40266;52.434;17.056;2022-12-05T06:08:34;101084.13;;;0.65;100.00
54369;BME280;40266;52.434;17.056;2022-12-05T06:11:19;101083.75;;;0.64;100.00
54369;BME280;40266;52.434;17.056;2022-12-05T06:14:08;101086.95;;;0.62;100.00
54369;BME280;40266;52.434;17.056;2022-12-05T06:16:51;101088.98;;;0.61;100.00
54369;BME280;40266;52.434;17.056;2022-12-05T06:19:33;101097.78;;;0.62;100.00
54369;BME280;40266;52.434;17.056;2022-12-05T06:22:17;101103.09;;;0.61;100.00
54369;BME280;40266;52.434;17.056;2022-12-05T06:24:59;101097.39;;;0.60;100.00
54369;BME280;40266;52.434;17.056;2022-12-05T06:27:42;101097.02;;;0.60;100.00
54369;BME280;40266;52.434;17.056;2022-12-05T06:30:25;101100.23;;;0.58;100.00
54369;BME280;40266;52.434;17.056;2022-12-05T06:33:08;101102.27;;;0.56;100.00
54369;BME280;40266;52.434;17.056;2022-12-05T06:36:04;101100.13;;;0.54;100.00
54369;BME280;40266;52.434;17.056;2022-12-05T06:38:48;101099.57;;;0.53;100.00
54369;BME280;40266;52.434;17.056;2022-12-05T06:41:31;101102.65;;;0.52;100.00
54369;BME280;40266;52.434;17.056;2022-12-05T06:44:15;101108.17;;;0.53;100.00
54369;BME280;40266;52.434;17.056;2022-12-05T06:46:58;101107.65;;;0.53;100.00
54369;BME280;40266;52.434;17.056;2022-12-05T06:49:41;101104.88;;;0.52;100.00
54369;BME280;40266;52.434;17.056;2022-12-05T06:52:24;101097.46;;;0.51;100.00
54369;BME280;40266;52.434;17.056;2022-12-05T06:55:07;101101.77;;;0.51;100.00
54369;BME280;40266;52.434;17.056;2022-12-05T06:57:50;101106.09;;;0.53;100.00
54369;BME280;40266;52.434;17.056;2022-12-05T07:00:33;101106.09;;;0.52;100.00
54369;BME280;40266;52.434;17.056;2022-12-05T07:03:35;101108.14;;;0.52;100.00
54369;BME280;40266;52.434;17.056;2022-12-05T07:06:22;101108.69;;;0.53;100.00
54369;BME280;40266;52.434;17.056;2022-12-05T07:09:05;101110.43;;;0.54;100.00
54369;BME280;40266;52.434;17.056;2022-12-05T07:11:49;101114.07;;;0.55;100.00
54369;BME280;40266;52.434;17.056;2022-12-05T07:14:32;101111.66;;;0.55;100.00
54369;BME280;40266;52.434;17.056;2022-12-05T07:17:35;101110.45;;;0.55;100.00
54369;BME280;40266;52.434;17.056;2022-12-05T07:20:18;101118.21;;;0.56;100.00
54369;BME280;40266;52.434;17.056;2022-12-05T07:23:01;101114.85;;;0.58;100.00
54369;BME280;40266;52.434;17.056;2022-12-05T07:25:44;101117.81;;;0.59;100.00
54369;BME280;40266;52.434;17.056;2022-12-05T07:28:27;101117.86;;;0.61;100.00
54369;BME280;40266;52.434;17.056;2022-12-05T07:31:13;101111.20;;;0.62;100.00
54369;BME280;40266;52.434;17.056;2022-12-05T07:33:57;101111.06;;;0.63;100.00
54369;BME280;40266;52.434;17.056;2022-12-05T07:36:40;101107.33;;;0.65;100.00
54369;BME280;40266;52.434;17.056;2022-12-05T07:39:22;101110.12;;;0.67;100.00
54369;BME280;40266;52.434;17.056;2022-12-05T07:42:05;101110.81;;;0.67;100.00
54369;BME280;40266;52.434;17.056;2022-12-05T07:44:49;101109.94;;;0.66;100.00
54369;BME280;40266;52.434;17.056;2022-12-05T07:47:32;101108.73;;;0.66;100.00
54369;BME280;40266;52.434;17.056;2022-12-05T07:50:14;101107.90;;;0.68;100.00
54369;BME280;40266;52.434;17.056;2022-12-05T07:52:57;101098.81;;;0.68;100.00
54369;BME280;40266;52.434;17.056;2022-12-05T07:55:40;101092.67;;;0.70;100.00
54369;BME280;40266;52.434;17.056;2022-12-05T07:58:23;101086.54;;;0.72;100.00
54369;BME280;40266;52.434;17.056;2022-12-05T08:01:17;101080.58;;;0.73;100.00
54369;BME280;40266;52.434;17.056;2022-12-05T08:04:00;101078.89;;;0.75;100.00
54369;BME280;40266;52.434;17.056;2022-12-05T08:06:46;101078.55;;;0.75;100.00
54369;BME280;40266;52.434;17.056;2022-12-05T08:09:29;101081.70;;;0.76;100.00
54369;BME280;40266;52.434;17.056;2022-12-05T08:12:12;101085.17;;;0.77;100.00
54369;BME280;40266;52.434;17.056;2022-12-05T08:14:55;101085.16;;;0.77;100.00
54369;BME280;40266;52.434;17.056;2022-12-05T08:17:38;101089.33;;;0.79;100.00
54369;BME280;40266;52.434;17.056;2022-12-05T08:20:21;101095.23;;;0.81;100.00
54369;BME280;40266;52.434;17.056;2022-12-05T08:23:03;101096.33;;;0.83;100.00
54369;BME280;40266;52.434;17.056;2022-12-05T08:25:46;101112.70;;;0.84;100.00
54369;BME280;40266;52.434;17.056;2022-12-05T08:28:30;101121.14;;;0.85;100.00
54369;BME280;40266;52.434;17.056;2022-12-05T08:31:15;101121.98;;;0.84;100.00
54369;BME280;40266;52.434;17.056;2022-12-05T08:33:59;101114.47;;;0.86;100.00
54369;BME280;40266;52.434;17.056;2022-12-05T08:36:42;101111.30;;;0.89;100.00
54369;BME280;40266;52.434;17.056;2022-12-05T08:39:25;101112.98;;;0.94;100.00
54369;BME280;40266;52.434;17.056;2022-12-05T08:42:10;101116.63;;;0.95;100.00
54369;BME280;40266;52.434;17.056;2022-12-05T08:44:53;101121.19;;;0.99;100.00
54369;BME280;40266;52.434;17.056;2022-12-05T08:47:36;101120.26;;;1.02;100.00
54369;BME280;40266;52.434;17.056;2022-12-05T08:50:21;101112.09;;;1.04;100.00
54369;BME280;40266;52.434;17.056;2022-12-05T08:53:03;101112.30;;;1.06;100.00
54369;BME280;40266;52.434;17.056;2022-12-05T08:55:46;101112.04;;;1.09;100.00
54369;BME280;40266;52.434;17.056;2022-12-05T08:58:30;101111.55;;;1.10;100.00
54369;BME280;40266;52.434;17.056;2022-12-05T09:01:20;101108.64;;;1.11;100.00
54369;BME280;40266;52.434;17.056;2022-12-05T09:04:04;101112.80;;;1.12;100.00
54369;BME280;40266;52.434;17.056;2022-12-05T09:06:47;101116.33;;;1.15;100.00
54369;BME280;40266;52.434;17.056;2022-12-05T09:09:30;101117.90;;;1.16;100.00
54369;BME280;40266;52.434;17.056;2022-12-05T09:12:14;101114.35;;;1.18;100.00
54369;BME280;40266;52.434;17.056;2022-12-05T09:14:57;101114.59;;;1.20;100.00
54369;BME280;40266;52.434;17.056;2022-12-05T09:17:40;101115.98;;;1.21;100.00
54369;BME280;40266;52.434;17.056;2022-12-05T09:20:23;101110.86;;;1.22;100.00
54369;BME280;40266;52.434;17.056;2022-12-05T09:23:06;101110.02;;;1.23;100.00
54369;BME280;40266;52.434;17.056;2022-12-05T09:25:56;101103.23;;;1.26;100.00
54369;BME280;40266;52.434;17.056;2022-12-05T09:28:41;101104.64;;;1.28;100.00
54369;BME280;40266;52.434;17.056;2022-12-05T09:31:25;101108.23;;;1.27;100.00
54369;BME280;40266;52.434;17.056;2022-12-05T09:34:10;101107.41;;;1.29;100.00
54369;BME280;40266;52.434;17.056;2022-12-05T09:36:54;101105.59;;;1.31;100.00
54369;BME280;40266;52.434;17.056;2022-12-05T09:39:59;101104.75;;;1.32;100.00
54369;BME280;40266;52.434;17.056;2022-12-05T09:43:04;101101.65;;;1.32;100.00
54369;BME280;40266;52.434;17.056;2022-12-05T09:46:20;101099.23;;;1.31;100.00
54369;BME280;40266;52.434;17.056;2022-12-05T09:49:08;101090.30;;;1.33;100.00
54369;BME280;40266;52.434;17.056;2022-12-05T09:51:53;101088.82;;;1.35;100.00
54369;BME280;40266;52.434;17.056;2022-12-05T09:54:37;101085.41;;;1.36;100.00
54369;BME280;40266;52.434;17.056;2022-12-05T09:57:23;101088.86;;;1.36;100.00
54369;BME280;40266;52.434;17.056;2022-12-05T10:00:16;101088.53;;;1.37;100.00
54369;BME280;40266;52.434;17.056;2022-12-05T10:03:18;101090.10;;;1.37;100.00
54369;BME280;40266;52.434;17.056;2022-12-05T10:06:17;101084.11;;;1.39;100.00
54369;BME280;40266;52.434;17.056;2022-12-05T10:15:43;101076.72;;;1.39;100.00
54369;BME280;40266;52.434;17.056;2022-12-05T10:18:35;101078.48;;;1.41;100.00
54369;BME280;40266;52.434;17.056;2022-12-05T10:21:32;101076.15;;;1.43;100.00
54369;BME280;40266;52.434;17.056;2022-12-05T10:27:31;101077.94;;;1.46;100.00
54369;BME280;40266;52.434;17.056;2022-12-05T10:30:26;101076.09;;;1.47;100.00
54369;BME280;40266;52.434;17.056;2022-12-05T10:33:15;101082.05;;;1.46;100.00
54369;BME280;40266;52.434;17.056;2022-12-05T10:36:04;101086.02;;;1.46;100.00
54369;BME280;40266;52.434;17.056;2022-12-05T10:38:51;101090.91;;;1.49;100.00
54369;BME280;40266;52.434;17.056;2022-12-05T10:41:34;101094.58;;;1.51;100.00
54369;BME280;40266;52.434;17.056;2022-12-05T10:44:17;101088.09;;;1.53;100.00
54369;BME280;40266;52.434;17.056;2022-12-05T10:47:00;101079.39;;;1.55;100.00
54369;BME280;40266;52.434;17.056;2022-12-05T10:49:44;101064.41;;;1.57;100.00
54369;BME280;40266;52.434;17.056;2022-12-05T10:52:29;101051.92;;;1.59;100.00
54369;BME280;40266;52.434;17.056;2022-12-05T10:55:15;101047.00;;;1.61;100.00
54369;BME280;40266;52.434;17.056;2022-12-05T10:58:15;101048.49;;;1.67;100.00
54369;BME280;40266;52.434;17.056;2022-12-05T11:01:06;101040.23;;;1.73;100.00
54369;BME280;40266;52.434;17.056;2022-12-05T11:03:56;101040.71;;;1.79;100.00
54369;BME280;40266;52.434;17.056;2022-12-05T11:06:48;101042.55;;;1.83;100.00
54369;BME280;40266;52.434;17.056;2022-12-05T11:09:35;101045.17;;;1.86;100.00
54369;BME280;40266;52.434;17.056;2022-12-05T11:12:39;101039.00;;;1.87;100.00
54369;BME280;40266;52.434;17.056;2022-12-05T11:15:25;101028.23;;;1.90;100.00
54369;BME280;40266;52.434;17.056;2022-12-05T11:18:27;101024.52;;;1.93;100.00
54369;BME280;40266;52.434;17.056;2022-12-05T11:21:13;101027.88;;;1.97;100.00
54369;BME280;40266;52.434;17.056;2022-12-05T11:23:56;101022.38;;;1.98;100.00
54369;BME280;40266;52.434;17.056;2022-12-05T11:26:40;101017.61;;;2.00;100.00
54369;BME280;40266;52.434;17.056;2022-12-05T11:32:39;101018.48;;;2.01;100.00
54369;BME280;40266;52.434;17.056;2022-12-05T11:35:25;101022.40;;;1.99;100.00
54369;BME280;40266;52.434;17.056;2022-12-05T11:38:10;101021.67;;;1.97;100.00
54369;BME280;40266;52.434;17.056;2022-12-05T11:44:30;101046.11;;;1.89;100.00
54369;BME280;40266;52.434;17.056;2022-12-05T11:47:34;101043.38;;;1.89;100.00
54369;BME280;40266;52.434;17.056;2022-12-05T11:53:33;101040.59;;;1.89;100.00
54369;BME280;40266;52.434;17.056;2022-12-05T12:14:14;101024.48;;;1.84;100.00
54369;BME280;40266;52.434;17.056;2022-12-05T12:20:25;101025.84;;;1.84;100.00
54369;BME280;40266;52.434;17.056;2022-12-05T12:26:24;101008.20;;;1.80;100.00
54369;BME280;40266;52.434;17.056;2022-12-05T12:32:46;100992.64;;;1.85;100.00
54369;BME280;40266;52.434;17.056;2022-12-05T12:50:50;100976.42;;;1.85;100.00
54369;BME280;40266;52.434;17.056;2022-12-05T12:54:01;100971.77;;;1.84;100.00
54369;BME280;40266;52.434;17.056;2022-12-05T13:00:37;100978.55;;;1.87;100.00
54369;BME280;40266;52.434;17.056;2022-12-05T13:08:52;100978.63;;;1.90;100.00
54369;BME280;40266;52.434;17.056;2022-12-05T13:11:38;100983.45;;;1.90;100.00
54369;BME280;40266;52.434;17.056;2022-12-05T13:14:24;100987.08;;;1.91;100.00
54369;BME280;40266;52.434;17.056;2022-12-05T13:17:15;100987.38;;;1.88;100.00
54369;BME280;40266;52.434;17.056;2022-12-05T13:19:59;100982.38;;;1.88;100.00
54369;BME280;40266;52.434;17.056;2022-12-05T13:22:44;100981.72;;;1.90;100.00
54369;BME280;40266;52.434;17.056;2022-12-05T13:25:30;100983.63;;;1.91;100.00
54369;BME280;40266;52.434;17.056;2022-12-05T13:28:34;100977.41;;;1.90;100.00
54369;BME280;40266;52.434;17.056;2022-12-05T13:31:56;100980.66;;;1.88;100.00
54369;BME280;40266;52.434;17.056;2022-12-05T13:35:09;100981.34;;;1.89;100.00
54369;BME280;40266;52.434;17.056;2022-12-05T13:37:53;100979.10;;;1.88;100.00
54369;BME280;40266;52.434;17.056;2022-12-05T13:40:54;100977.38;;;1.89;100.00
54369;BME280;40266;52.434;17.056;2022-12-05T13:43:56;100977.02;;;1.88;100.00
54369;BME280;40266;52.434;17.056;2022-12-05T13:46:48;100980.05;;;1.84;100.00
54369;BME280;40266;52.434;17.056;2022-12-05T13:49:36;100979.98;;;1.82;100.00
54369;BME280;40266;52.434;17.056;2022-12-05T13:52:27;100980.53;;;1.83;100.00
54369;BME280;40266;52.434;17.056;2022-12-05T13:55:29;100979.99;;;1.82;100.00
54369;BME280;40266;52.434;17.056;2022-12-05T14:04:10;100972.33;;;1.78;100.00
54369;BME280;40266;52.434;17.056;2022-12-05T14:07:03;100968.38;;;1.79;100.00
54369;BME280;40266;52.434;17.056;2022-12-05T14:09:50;100969.42;;;1.79;100.00
54369;BME280;40266;52.434;17.056;2022-12-05T14:19:36;100963.90;;;1.78;100.00
54369;BME280;40266;52.434;17.056;2022-12-05T14:28:41;100957.88;;;1.80;100.00
54369;BME280;40266;52.434;17.056;2022-12-05T14:34:36;100962.82;;;1.77;100.00
54369;BME280;40266;52.434;17.056;2022-12-05T14:37:26;100962.60;;;1.75;100.00
54369;BME280;40266;52.434;17.056;2022-12-05T14:46:29;100962.42;;;1.67;100.00
54369;BME280;40266;52.434;17.056;2022-12-05T14:49:51;100957.86;;;1.64;100.00
54369;BME280;40266;52.434;17.056;2022-12-05T14:52:35;100954.27;;;1.64;100.00
54369;BME280;40266;52.434;17.056;2022-12-05T14:55:21;100957.37;;;1.64;100.00
54369;BME280;40266;52.434;17.056;2022-12-05T15:01:26;100949.67;;;1.67;100.00
54369;BME280;40266;52.434;17.056;2022-12-05T15:07:18;100947.16;;;1.69;100.00
54369;BME280;40266;52.434;17.056;2022-12-05T15:10:28;100944.93;;;1.70;100.00
54369;BME280;40266;52.434;17.056;2022-12-05T15:13:13;100938.59;;;1.71;100.00
54369;BME280;40266;52.434;17.056;2022-12-05T15:16:01;100931.21;;;1.73;100.00
54369;BME280;40266;52.434;17.056;2022-12-05T15:18:49;100933.66;;;1.75;100.00
54369;BME280;40266;52.434;17.056;2022-12-05T15:21:39;100931.05;;;1.73;100.00
54369;BME280;40266;52.434;17.056;2022-12-05T15:24:24;100933.27;;;1.72;100.00
54369;BME280;40266;52.434;17.056;2022-12-05T15:27:09;100933.54;;;1.69;100.00
54369;BME280;40266;52.434;17.056;2022-12-05T15:29:53;100932.63;;;1.67;100.00
54369;BME280;40266;52.434;17.056;2022-12-05T15:32:36;100935.18;;;1.66;100.00
54369;BME280;40266;52.434;17.056;2022-12-05T15:35:22;100935.35;;;1.65;100.00
54369;BME280;40266;52.434;17.056;2022-12-05T15:38:16;100936.59;;;1.66;100.00
54369;BME280;40266;52.434;17.056;2022-12-05T15:41:15;100933.66;;;1.66;100.00
54369;BME280;40266;52.434;17.056;2022-12-05T15:43:59;100932.45;;;1.66;100.00
54369;BME280;40266;52.434;17.056;2022-12-05T15:46:42;100935.55;;;1.66;100.00
54369;BME280;40266;52.434;17.056;2022-12-05T15:49:26;100933.85;;;1.67;100.00
54369;BME280;40266;52.434;17.056;2022-12-05T15:52:33;100930.41;;;1.68;100.00
54369;BME280;40266;52.434;17.056;2022-12-05T16:01:20;100930.95;;;1.68;100.00
54369;BME280;40266;52.434;17.056;2022-12-05T16:04:13;100923.40;;;1.69;100.00
54369;BME280;40266;52.434;17.056;2022-12-05T16:07:00;100923.74;;;1.70;100.00
54369;BME280;40266;52.434;17.056;2022-12-05T16:09:45;100920.35;;;1.72;100.00
54369;BME280;40266;52.434;17.056;2022-12-05T16:18:00;100921.56;;;1.72;100.00
54369;BME280;40266;52.434;17.056;2022-12-05T16:20:45;100921.98;;;1.75;100.00
54369;BME280;40266;52.434;17.056;2022-12-05T16:23:33;100925.45;;;1.77;100.00
54369;BME280;40266;52.434;17.056;2022-12-05T16:26:20;100924.48;;;1.79;100.00
54369;BME280;40266;52.434;17.056;2022-12-05T16:29:03;100923.46;;;1.80;100.00
54369;BME280;40266;52.434;17.056;2022-12-05T16:31:55;100920.91;;;1.82;100.00
54369;BME280;40266;52.434;17.056;2022-12-05T16:34:39;100921.15;;;1.84;100.00
54369;BME280;40266;52.434;17.056;2022-12-05T16:37:25;100921.89;;;1.86;100.00
54369;BME280;40266;52.434;17.056;2022-12-05T16:40:20;100925.88;;;1.88;100.00
54369;BME280;40266;52.434;17.056;2022-12-05T16:43:15;100929.16;;;1.88;100.00
54369;BME280;40266;52.434;17.056;2022-12-05T16:49:18;100928.17;;;1.92;100.00
54369;BME280;40266;52.434;17.056;2022-12-05T16:54:49;100914.41;;;1.91;100.00
54369;BME280;40266;52.434;17.056;2022-12-05T16:57:32;100913.90;;;1.92;100.00
54369;BME280;40266;52.434;17.056;2022-12-05T17:00:15;100917.71;;;1.93;100.00
54369;BME280;40266;52.434;17.056;2022-12-05T17:02:59;100914.30;;;1.95;100.00
54369;BME280;40266;52.434;17.056;2022-12-05T17:06:02;100916.73;;;1.96;100.00
54369;BME280;40266;52.434;17.056;2022-12-05T17:08:45;100912.62;;;1.96;100.00
54369;BME280;40266;52.434;17.056;2022-12-05T17:11:30;100915.17;;;1.95;100.00
54369;BME280;40266;52.434;17.056;2022-12-05T17:14:15;100910.91;;;1.97;100.00
54369;BME280;40266;52.434;17.056;2022-12-05T17:16:59;100909.55;;;1.98;100.00
54369;BME280;40266;52.434;17.056;2022-12-05T17:19:45;100915.06;;;1.98;100.00
54369;BME280;40266;52.434;17.056;2022-12-05T17:22:28;100907.45;;;1.96;100.00
54369;BME280;40266;52.434;17.056;2022-12-05T17:25:17;100909.70;;;1.97;100.00